This is the latest recevied weather packets stored in our database for station/object W5HKR. If no packets are shown the sender has not sent any weather packets the latest 10 day(s).
| Time | Temp. | Humidity | Pressure | Rain* | Wind** | Luminosity | Snow |
|---|---|---|---|---|---|---|---|
| 1777843712 | 27.22° C | 38% | 990.1 hPa | 0 mm | - | - | - |
| 1777843680 | 27.22° C | 38% | 990.1 hPa | 0 mm | - | - | - |
| 1777843409 | 27.22° C | 42% | 990.5 hPa | 0 mm | - | - | - |
| 1777843109 | 27.22° C | 38% | 990.2 hPa | 0 mm | - | - | - |
| 1777842810 | 27.22° C | 36% | 990.3 hPa | 0 mm | - | - | - |
| 1777842601 | 18.33° C | 91% | 990.6 hPa | 0 mm | - | - | - |
| 1777842510 | 26.67° C | 38% | 990.5 hPa | 0 mm | - | - | - |
| 1777842210 | 18.33° C | 91% | 990.6 hPa | 0 mm | - | - | - |
| 1777841610 | 18.33° C | 91% | 990.6 hPa | 0 mm | - | - | - |
| 1777841520 | 26.67° C | 37% | 991.2 hPa | 0 mm | - | - | - |
| 1777841309 | 18.33° C | 91% | 990.6 hPa | 0 mm | - | - | - |
| 1777841011 | 18.33° C | 91% | 990.6 hPa | 0 mm | - | - | - |
| 1777840710 | 26.67° C | 36% | 991.2 hPa | 0 mm | - | - | - |
| 1777840440 | 18.33° C | 91% | 990.6 hPa | 0 mm | - | - | - |
| 1777840409 | 26.67° C | 39% | 991.5 hPa | 0 mm | - | - | - |
| 1777840109 | 26.67° C | 34% | 991.3 hPa | 0 mm | - | - | - |
| 1777839810 | 27.22° C | 39% | 991.5 hPa | 0 mm | - | - | - |
| 1777839510 | 18.33° C | 91% | 990.6 hPa | 0 mm | - | - | - |
| 1777839360 | 18.33° C | 91% | 990.6 hPa | 0 mm | - | - | - |
| 1777839211 | 18.33° C | 91% | 990.6 hPa | 0 mm | - | - | - |
| 1777838910 | 27.22° C | 35% | 991.8 hPa | 0 mm | - | - | - |
| 1777838611 | 27.78° C | 37% | 992.2 hPa | 0 mm | - | - | - |
| 1777838281 | 27.22° C | 37% | 991.9 hPa | 0 mm | - | - | - |
| 1777838009 | 26.67° C | 34% | 991.9 hPa | 0 mm | - | - | - |
| 1777837710 | 26.67° C | 35% | 991.9 hPa | 0 mm | - | - | - |
* Rain latest hour (hover to see other rain measurements)
** Current wind speed in m/s (hover to see current wind gust speed)